createdAt,value
2023-04-18T00:01:52.619Z,98971.41
2023-04-18T00:04:19.988Z,98975.28
2023-04-18T00:06:49.854Z,98977.88
2023-04-18T00:09:16.764Z,98977.41
2023-04-18T00:11:44.140Z,98975.13
2023-04-18T00:14:11.974Z,98972.88
2023-04-18T00:16:39.478Z,98976.41
2023-04-18T00:19:06.611Z,98971.56
2023-04-18T00:21:33.491Z,98958.59
2023-04-18T00:24:00.624Z,98959.59
2023-04-18T00:26:28.236Z,98974.47
2023-04-18T00:28:56.897Z,98965.25
2023-04-18T00:31:24.047Z,98966.06
2023-04-18T00:33:51.347Z,98962.50
2023-04-18T00:36:18.261Z,98967.03
2023-04-18T00:38:45.353Z,98971.59
2023-04-18T00:41:15.483Z,98974.81
2023-04-18T00:43:42.285Z,98969.44
2023-04-18T00:46:11.031Z,98979.44
2023-04-18T00:48:39.231Z,98956.94
2023-04-18T00:51:07.798Z,98957.28
2023-04-18T00:53:36.173Z,98965.00
2023-04-18T00:56:03.516Z,98952.53
2023-04-18T00:58:32.172Z,98967.94
2023-04-18T01:00:59.180Z,98959.69
2023-04-18T01:03:26.521Z,98955.00
2023-04-18T01:05:54.848Z,98960.03
2023-04-18T01:08:22.344Z,98950.81
2023-04-18T01:10:49.754Z,98953.25
2023-04-18T01:13:18.760Z,98962.16
2023-04-18T01:15:50.514Z,98960.53
2023-04-18T01:18:18.142Z,98954.69
2023-04-18T01:20:48.842Z,98959.88
2023-04-18T01:23:17.430Z,98964.09
2023-04-18T01:25:45.764Z,98950.81
2023-04-18T01:28:14.565Z,98960.69
2023-04-18T01:30:41.778Z,98961.34
2023-04-18T01:33:08.693Z,98955.19
2023-04-18T01:35:35.791Z,98957.59
2023-04-18T01:38:03.049Z,98944.34
2023-04-18T01:40:30.340Z,98943.88
2023-04-18T01:42:57.240Z,98945.97
2023-04-18T01:45:24.493Z,98917.50
2023-04-18T01:47:51.652Z,98941.44
2023-04-18T01:50:18.573Z,98940.97
2023-04-18T01:52:45.619Z,98934.97
2023-04-18T01:55:12.750Z,98930.56
2023-04-18T01:57:40.088Z,98948.69
2023-04-18T02:00:08.189Z,98946.28
2023-04-18T02:02:44.251Z,98944.84
2023-04-18T02:05:11.414Z,98943.69
2023-04-18T02:07:39.776Z,98947.28
2023-04-18T02:10:07.910Z,98948.41
2023-04-18T02:12:34.985Z,98941.13
2023-04-18T02:15:02.079Z,98954.25
2023-04-18T02:17:29.334Z,98953.44
2023-04-18T02:19:56.513Z,98955.03
2023-04-18T02:22:23.292Z,98956.50
2023-04-18T02:24:50.430Z,98967.97
2023-04-18T02:27:18.455Z,98960.22
2023-04-18T02:29:45.981Z,98952.44
2023-04-18T02:32:12.922Z,98960.84
2023-04-18T02:34:43.181Z,98963.28
2023-04-18T02:37:10.110Z,98960.81
2023-04-18T02:39:39.580Z,98954.19
2023-04-18T02:42:06.418Z,98959.03
2023-04-18T02:44:33.505Z,98955.78
2023-04-18T02:47:01.726Z,98961.44
2023-04-18T02:49:29.786Z,98948.31
2023-04-18T02:51:57.332Z,98965.16
2023-04-18T02:54:24.909Z,98959.34
2023-04-18T02:56:57.515Z,98946.69
2023-04-18T02:59:50.444Z,98960.78
2023-04-18T03:02:21.197Z,98962.53
2023-04-18T03:04:53.985Z,98965.47
2023-04-18T03:07:20.822Z,98966.91
2023-04-18T03:09:49.900Z,98969.19
2023-04-18T03:12:21.908Z,98971.47
2023-04-18T03:14:48.891Z,98977.28
2023-04-18T03:17:16.204Z,98960.13
2023-04-18T03:19:47.740Z,98968.34
2023-04-18T03:22:16.379Z,98979.34
2023-04-18T03:24:52.808Z,98976.09
2023-04-18T03:27:20.806Z,98974.16
2023-04-18T03:29:48.256Z,98985.97
2023-04-18T03:32:15.606Z,98987.28
2023-04-18T03:34:42.697Z,98986.63
2023-04-18T03:37:10.339Z,98978.41
2023-04-18T03:39:43.373Z,98979.53
2023-04-18T03:42:10.605Z,98967.06
2023-04-18T03:44:38.246Z,98987.81
2023-04-18T03:47:05.496Z,98986.47
2023-04-18T03:49:35.110Z,98987.44
2023-04-18T03:52:03.404Z,98990.78
2023-04-18T03:54:30.657Z,98992.41
2023-04-18T03:56:59.589Z,98990.81
2023-04-18T03:59:27.211Z,98994.88
2023-04-18T04:01:55.974Z,98998.00
2023-04-18T04:04:23.243Z,99002.03
2023-04-18T04:06:51.207Z,98996.72
2023-04-18T04:09:18.190Z,98998.34
2023-04-18T04:11:46.406Z,99008.38
2023-04-18T04:14:15.196Z,99010.66
2023-04-18T04:16:45.539Z,99008.72
2023-04-18T04:19:15.541Z,99019.88
2023-04-18T04:22:01.231Z,99014.88
2023-04-18T04:24:29.185Z,99020.84
2023-04-18T04:26:57.290Z,99010.56
2023-04-18T04:29:26.438Z,99002.53
2023-04-18T04:31:53.487Z,99002.69
2023-04-18T04:34:34.434Z,99012.44
2023-04-18T04:37:04.075Z,99013.41
2023-04-18T04:39:35.427Z,99021.34
2023-04-18T04:42:20.945Z,99018.59
2023-04-18T04:44:55.519Z,99020.56
2023-04-18T04:47:22.968Z,99024.59
2023-04-18T04:49:50.003Z,99030.75
2023-04-18T04:52:16.975Z,99019.56
2023-04-18T04:54:45.912Z,99030.78
2023-04-18T04:57:15.763Z,99022.03
2023-04-18T04:59:42.829Z,99038.25
2023-04-18T05:02:11.195Z,99018.03
2023-04-18T05:04:38.089Z,99029.53
2023-04-18T05:07:06.160Z,99031.31
2023-04-18T05:09:33.100Z,99036.97
2023-04-18T05:12:00.065Z,99028.72
2023-04-18T05:14:27.755Z,99037.56
2023-04-18T05:16:55.907Z,99050.38
2023-04-18T05:19:23.683Z,99051.53
2023-04-18T05:21:51.054Z,99050.25
2023-04-18T05:24:18.206Z,99058.97
2023-04-18T05:26:45.206Z,99043.13
2023-04-18T05:29:12.308Z,99054.97
2023-04-18T05:31:39.077Z,99062.22
2023-04-18T05:34:06.003Z,99057.88
2023-04-18T05:36:32.848Z,99066.41
2023-04-18T05:38:59.817Z,99045.56
2023-04-18T05:41:26.826Z,99052.34
2023-04-18T05:44:04.367Z,99065.13
2023-04-18T05:46:32.966Z,99060.28
2023-04-18T05:49:00.145Z,99052.38
2023-04-18T05:51:28.717Z,99053.81
2023-04-18T05:53:55.816Z,99062.06
2023-04-18T05:56:22.824Z,99068.22
2023-04-18T05:58:51.352Z,99064.50
2023-04-18T06:01:21.457Z,99068.72
2023-04-18T06:03:48.697Z,99080.53
2023-04-18T06:06:16.208Z,99066.13
2023-04-18T06:08:43.260Z,99065.94
2023-04-18T06:11:10.136Z,99067.94
2023-04-18T06:13:37.739Z,99070.19
2023-04-18T06:16:05.963Z,99078.94
2023-04-18T06:18:33.635Z,99079.75
2023-04-18T06:21:00.558Z,99081.88
2023-04-18T06:23:27.614Z,99083.00
2023-04-18T06:25:54.780Z,99088.50
2023-04-18T06:28:21.748Z,99089.47
2023-04-18T06:30:48.626Z,99079.91
2023-04-18T06:33:15.574Z,99076.38
2023-04-18T06:35:42.573Z,99081.22
2023-04-18T06:38:11.423Z,99078.81
2023-04-18T06:40:38.313Z,99075.06
2023-04-18T06:43:05.194Z,99076.84
2023-04-18T06:45:32.494Z,99084.47
2023-04-18T06:48:00.086Z,99090.47
2023-04-18T06:50:27.247Z,99080.91
2023-04-18T06:52:54.278Z,99083.84
2023-04-18T06:55:21.570Z,99089.00
2023-04-18T06:57:48.675Z,99078.50
2023-04-18T07:00:16.118Z,99090.31
2023-04-18T07:02:43.166Z,99094.34
2023-04-18T07:05:11.140Z,99109.41
2023-04-18T07:07:38.216Z,99100.66
2023-04-18T07:10:06.963Z,99087.84
2023-04-18T07:12:33.976Z,99098.06
2023-04-18T07:15:01.055Z,99101.31
2023-04-18T07:17:28.035Z,99100.03
2023-04-18T07:19:55.160Z,99105.34
2023-04-18T07:22:31.165Z,99091.59
2023-04-18T07:24:58.260Z,99102.13
2023-04-18T07:27:25.971Z,99105.81
2023-04-18T07:29:53.117Z,99099.66
2023-04-18T07:32:19.983Z,99100.63
2023-04-18T07:34:47.077Z,99103.72
2023-04-18T07:37:15.245Z,99088.50
2023-04-18T07:39:42.261Z,99102.13
2023-04-18T07:42:10.036Z,99115.72
2023-04-18T07:44:36.982Z,99109.53
2023-04-18T07:47:03.953Z,99105.50
2023-04-18T07:49:31.002Z,99100.63
2023-04-18T07:51:57.888Z,99104.84
2023-04-18T07:54:24.725Z,99105.31
2023-04-18T07:56:51.664Z,99111.47
2023-04-18T07:59:18.645Z,99110.19
2023-04-18T08:01:45.985Z,99112.78
2023-04-18T08:04:13.408Z,99112.44
2023-04-18T08:06:40.945Z,99115.19
2023-04-18T08:09:09.266Z,99114.06
2023-04-18T08:11:36.171Z,99124.59
2023-04-18T08:14:03.072Z,99128.19
2023-04-18T08:16:30.044Z,99120.56
2023-04-18T08:18:57.104Z,99115.03
2023-04-18T08:21:24.015Z,99132.88
2023-04-18T08:23:51.034Z,99124.78
2023-04-18T08:26:18.262Z,99130.78
2023-04-18T08:28:46.552Z,99117.31
2023-04-18T08:31:15.035Z,99133.84
2023-04-18T08:33:42.832Z,99130.09
2023-04-18T08:36:09.969Z,99140.50
2023-04-18T08:38:36.947Z,99136.44
2023-04-18T08:41:04.190Z,99134.16
2023-04-18T08:43:31.357Z,99130.78
2023-04-18T08:46:00.344Z,99126.56
2023-04-18T08:48:28.425Z,99124.94
2023-04-18T08:50:59.853Z,99138.16
2023-04-18T08:53:27.357Z,99134.44
2023-04-18T08:55:56.397Z,99137.31
2023-04-18T08:58:24.471Z,99128.25
2023-04-18T09:00:53.036Z,99139.09
2023-04-18T09:03:41.152Z,99137.66
2023-04-18T09:06:14.571Z,99135.91
2023-04-18T09:08:43.918Z,99125.66
2023-04-18T09:11:29.254Z,99134.38
2023-04-18T09:13:58.898Z,99146.84
2023-04-18T09:16:27.902Z,99136.28
2023-04-18T09:19:18.716Z,99122.19
2023-04-18T09:21:47.390Z,99132.03
2023-04-18T09:24:24.105Z,99135.38
2023-04-18T09:26:54.137Z,99126.13
2023-04-18T09:29:25.045Z,99128.38
2023-04-18T09:32:02.091Z,99133.75
2023-04-18T09:34:29.604Z,99147.63
2023-04-18T09:37:26.264Z,99152.34
2023-04-18T09:39:53.298Z,99149.91
2023-04-18T09:42:20.754Z,99155.91
2023-04-18T09:45:07.270Z,99143.44
2023-04-18T09:47:36.732Z,99145.47
2023-04-18T09:50:09.482Z,99157.94
2023-04-18T09:52:42.084Z,99145.00
2023-04-18T09:55:17.405Z,99141.91
2023-04-18T09:57:48.876Z,99148.53
2023-04-18T10:00:27.382Z,99138.31
2023-04-18T10:03:09.224Z,99140.25
2023-04-18T10:05:39.776Z,99131.44
2023-04-18T10:08:07.406Z,99137.09
2023-04-18T10:10:34.350Z,99145.72
2023-04-18T10:13:02.802Z,99137.59
2023-04-18T10:15:31.274Z,99144.25
2023-04-18T10:18:05.228Z,99144.22
2023-04-18T10:20:35.070Z,99151.38
2023-04-18T10:23:31.089Z,99136.31
2023-04-18T10:25:59.456Z,99135.81
2023-04-18T10:28:28.205Z,99133.53
2023-04-18T10:31:02.933Z,99133.09
2023-04-18T10:33:34.667Z,99128.53
2023-04-18T10:36:11.604Z,99123.94
2023-04-18T10:38:47.844Z,99124.00
2023-04-18T10:41:15.996Z,99116.75
2023-04-18T10:44:08.649Z,99111.41
2023-04-18T10:46:38.146Z,99098.72
2023-04-18T10:49:18.373Z,99108.75
2023-04-18T10:51:46.562Z,99123.72
2023-04-18T10:54:20.952Z,99127.53
2023-04-18T10:57:03.556Z,99131.72
2023-04-18T10:59:32.814Z,99129.88
2023-04-18T11:02:12.236Z,99140.78
2023-04-18T11:04:39.519Z,99127.66
2023-04-18T11:07:06.460Z,99137.34
2023-04-18T11:09:33.928Z,99130.44
2023-04-18T11:12:06.212Z,99116.59
2023-04-18T11:14:41.186Z,99131.03
2023-04-18T11:17:29.099Z,99145.66
2023-04-18T11:20:12.895Z,99141.03
2023-04-18T11:22:56.778Z,99143.09
2023-04-18T11:25:32.215Z,99151.53
2023-04-18T11:28:00.630Z,99142.94
2023-04-18T11:30:29.180Z,99149.31
2023-04-18T11:32:56.150Z,99140.28
2023-04-18T11:35:23.550Z,99130.00
2023-04-18T11:37:51.260Z,99133.47
2023-04-18T11:40:18.342Z,99131.47
2023-04-18T11:42:45.433Z,99134.19
2023-04-18T11:45:14.233Z,99134.06
2023-04-18T11:47:43.242Z,99119.31
2023-04-18T11:50:12.832Z,99114.94
2023-04-18T11:52:42.735Z,99111.28
2023-04-18T11:55:31.955Z,99111.78
2023-04-18T11:58:01.299Z,99102.41
2023-04-18T12:00:37.577Z,99110.28
2023-04-18T12:03:06.374Z,99105.47
2023-04-18T12:05:38.641Z,99098.59
2023-04-18T12:08:11.996Z,99098.97
2023-04-18T12:10:54.932Z,99100.16
2023-04-18T12:13:26.965Z,99093.75
2023-04-18T12:15:54.545Z,99098.31
2023-04-18T12:18:23.501Z,99109.53
2023-04-18T12:20:52.624Z,99100.88
2023-04-18T12:23:40.574Z,99094.63
2023-04-18T12:26:22.532Z,99087.25
2023-04-18T12:28:55.308Z,99080.81
2023-04-18T12:31:22.554Z,99082.63
2023-04-18T12:33:50.905Z,99074.66
2023-04-18T12:36:18.339Z,99069.81
2023-04-18T12:38:45.854Z,99076.94
2023-04-18T12:41:13.336Z,99071.03
2023-04-18T12:43:40.640Z,99066.59
2023-04-18T12:46:07.549Z,99073.03
2023-04-18T12:48:34.481Z,99069.91
2023-04-18T12:51:01.572Z,99069.81
2023-04-18T12:53:28.550Z,99066.28
2023-04-18T12:55:55.616Z,99051.22
2023-04-18T12:58:22.552Z,99060.94
2023-04-18T13:00:49.585Z,99045.84
2023-04-18T13:03:16.696Z,99057.91
2023-04-18T13:05:44.093Z,99053.63
2023-04-18T13:08:16.920Z,99051.13
2023-04-18T13:10:46.176Z,99059.06
2023-04-18T13:13:13.385Z,99059.56
2023-04-18T13:15:40.453Z,99059.41
2023-04-18T13:18:07.498Z,99064.16
2023-04-18T13:20:35.425Z,99050.19
2023-04-18T13:23:02.969Z,99038.34
2023-04-18T13:25:30.056Z,99040.94
2023-04-18T13:27:58.607Z,99037.94
2023-04-18T13:30:26.039Z,99040.75
2023-04-18T13:32:52.929Z,99037.38
2023-04-18T13:35:20.289Z,99037.34
2023-04-18T13:37:47.435Z,99036.16
2023-04-18T13:40:14.711Z,99040.34
2023-04-18T13:42:41.552Z,99045.69
2023-04-18T13:45:08.866Z,99031.72
2023-04-18T13:47:35.979Z,99022.84
2023-04-18T13:50:02.974Z,99039.72
2023-04-18T13:52:29.781Z,99015.81
2023-04-18T13:54:56.861Z,99033.03
2023-04-18T13:57:23.765Z,99021.22
2023-04-18T13:59:50.658Z,99018.56
2023-04-18T14:02:17.810Z,99013.66
2023-04-18T14:04:45.100Z,99023.66
2023-04-18T14:07:12.115Z,99031.69
2023-04-18T14:09:39.173Z,99030.09
2023-04-18T14:12:30.517Z,99023.84
2023-04-18T14:15:11.160Z,99032.72
2023-04-18T14:17:38.221Z,98979.78
2023-04-18T14:20:06.087Z,99030.31
2023-04-18T14:22:32.995Z,99013.72
2023-04-18T14:24:59.824Z,99009.84
2023-04-18T14:27:27.787Z,99016.84
2023-04-18T14:29:54.807Z,99021.00
2023-04-18T14:32:21.709Z,99030.28
2023-04-18T14:34:48.647Z,99024.44
2023-04-18T14:37:17.571Z,99023.69
2023-04-18T14:39:44.949Z,99022.03
2023-04-18T14:42:12.032Z,99007.16
2023-04-18T14:44:39.059Z,99018.69
2023-04-18T14:47:06.392Z,99016.13
2023-04-18T14:49:34.248Z,99022.53
2023-04-18T14:52:01.167Z,99007.63
2023-04-18T14:54:28.964Z,99010.38
2023-04-18T14:56:56.992Z,99004.19
2023-04-18T14:59:30.286Z,99009.50
2023-04-18T15:01:57.408Z,99021.06
2023-04-18T15:04:24.673Z,99024.44
2023-04-18T15:06:51.799Z,99021.13
2023-04-18T15:09:18.730Z,99016.78
2023-04-18T15:11:46.038Z,99020.28
2023-04-18T15:14:13.066Z,99018.56
2023-04-18T15:16:41.005Z,99018.09
2023-04-18T15:19:08.088Z,99017.63
2023-04-18T15:21:35.036Z,99022.50
2023-04-18T15:24:02.093Z,99010.28
2023-04-18T15:26:30.417Z,99008.91
2023-04-18T15:29:02.304Z,99007.75
2023-04-18T15:31:29.621Z,99007.28
2023-04-18T15:33:56.678Z,99012.38
2023-04-18T15:36:23.627Z,99008.09
2023-04-18T15:38:50.406Z,99005.88
2023-04-18T15:41:17.266Z,98995.50
2023-04-18T15:43:45.488Z,98997.34
2023-04-18T15:46:12.652Z,98989.50
2023-04-18T15:48:39.747Z,98969.84
2023-04-18T15:51:06.827Z,98964.00
2023-04-18T15:53:33.687Z,98976.78
2023-04-18T15:56:02.062Z,98981.53
2023-04-18T15:58:30.311Z,98986.75
2023-04-18T16:00:57.740Z,98991.38
2023-04-18T16:03:25.043Z,98984.78
2023-04-18T16:05:54.996Z,98985.50
2023-04-18T16:08:24.204Z,98990.81
2023-04-18T16:10:53.241Z,98984.50
2023-04-18T16:13:20.308Z,98993.84
2023-04-18T16:15:48.331Z,98984.59
2023-04-18T16:18:15.206Z,98996.34
2023-04-18T16:20:42.382Z,99003.16
2023-04-18T16:23:09.144Z,98995.78
2023-04-18T16:25:36.153Z,98996.25
2023-04-18T16:28:03.163Z,98989.31
2023-04-18T16:30:29.961Z,99003.38
2023-04-18T16:32:57.293Z,99008.34
2023-04-18T16:35:24.290Z,99005.31
2023-04-18T16:37:51.311Z,99008.19
2023-04-18T16:40:18.080Z,99011.31
2023-04-18T16:42:45.197Z,99012.09
2023-04-18T16:45:42.815Z,99015.91
2023-04-18T16:48:09.803Z,99013.34
2023-04-18T16:50:36.860Z,98998.94
2023-04-18T16:53:04.624Z,99005.63
2023-04-18T16:58:47.093Z,99018.06
2023-04-18T17:01:20.870Z,99004.47
2023-04-18T17:03:47.833Z,99019.56
2023-04-18T17:06:15.404Z,99020.38
2023-04-18T17:08:42.306Z,99020.16
2023-04-18T17:11:09.374Z,99012.66
2023-04-18T17:13:36.594Z,99016.72
2023-04-18T17:16:03.843Z,99007.94
2023-04-18T17:18:30.944Z,99020.50
2023-04-18T17:20:57.853Z,99010.00
2023-04-18T17:23:24.790Z,99023.81
2023-04-18T17:25:51.682Z,99006.75
2023-04-18T17:28:18.848Z,99012.03
2023-04-18T17:30:45.940Z,99011.34
2023-04-18T17:33:13.146Z,99014.94
2023-04-18T17:35:42.952Z,99006.72
2023-04-18T17:38:10.874Z,99017.09
2023-04-18T17:40:37.797Z,99017.78
2023-04-18T17:43:04.875Z,99030.22
2023-04-18T17:45:31.686Z,99026.53
2023-04-18T17:47:59.703Z,99037.25
2023-04-18T17:50:26.587Z,99021.22
2023-04-18T17:52:53.459Z,99025.59
2023-04-18T17:55:20.701Z,99033.41
2023-04-18T17:57:47.728Z,99010.03
2023-04-18T18:00:15.793Z,99030.66
2023-04-18T18:02:43.277Z,99016.84
2023-04-18T18:05:13.386Z,99034.00
2023-04-18T18:07:43.238Z,99029.63
2023-04-18T18:10:11.549Z,99032.25
2023-04-18T18:12:40.094Z,99025.47
2023-04-18T18:15:08.756Z,99033.06
2023-04-18T18:17:38.915Z,99024.44
2023-04-18T18:20:12.083Z,99025.72
2023-04-18T18:26:20.870Z,99019.97
2023-04-18T18:28:47.806Z,99028.00
2023-04-18T18:31:14.736Z,99017.28
2023-04-18T18:33:41.706Z,99021.13
2023-04-18T18:36:08.648Z,99019.63
2023-04-18T18:38:36.517Z,99027.47
2023-04-18T18:41:04.642Z,99008.19
2023-04-18T18:43:32.370Z,99010.84
2023-04-18T18:45:59.538Z,99005.81
2023-04-18T18:48:29.528Z,99004.56
2023-04-18T18:50:57.397Z,99009.19
2023-04-18T18:53:24.351Z,99009.34
2023-04-18T18:55:51.474Z,98996.41
2023-04-18T18:58:18.403Z,99003.19
2023-04-18T19:00:46.986Z,99008.25
2023-04-18T19:03:14.611Z,99011.00
2023-04-18T19:05:41.630Z,99001.78
2023-04-18T19:08:09.425Z,99005.69
2023-04-18T19:10:36.404Z,99012.63
2023-04-18T19:13:03.742Z,99007.44
2023-04-18T19:15:30.581Z,99004.00
2023-04-18T19:17:57.529Z,99004.22
2023-04-18T19:20:24.493Z,99012.63
2023-04-18T19:22:54.685Z,99008.94
2023-04-18T19:25:21.957Z,99009.41
2023-04-18T19:27:48.923Z,99012.50
2023-04-18T19:30:15.778Z,99008.47
2023-04-18T19:32:43.312Z,99009.53
2023-04-18T19:35:13.239Z,99005.03
2023-04-18T19:37:40.308Z,99001.19
2023-04-18T19:40:07.849Z,99005.91
2023-04-18T19:42:34.773Z,99005.56
2023-04-18T19:45:01.889Z,99002.81
2023-04-18T19:47:32.234Z,98994.84
2023-04-18T19:50:00.230Z,98990.69
2023-04-18T19:52:27.256Z,98997.84
2023-04-18T19:54:54.994Z,99001.75
2023-04-18T19:57:22.222Z,98982.75
2023-04-18T19:59:49.295Z,99005.25
2023-04-18T20:02:18.506Z,98995.34
2023-04-18T20:04:46.427Z,98995.69
2023-04-18T20:07:13.577Z,98998.91
2023-04-18T20:09:40.608Z,98992.66
2023-04-18T20:12:07.551Z,98991.25
2023-04-18T20:14:34.534Z,98983.63
2023-04-18T20:17:01.329Z,98988.00
2023-04-18T20:19:29.768Z,98986.53
2023-04-18T20:21:57.001Z,98999.72
2023-04-18T20:24:28.241Z,98988.09
2023-04-18T20:26:55.278Z,98987.97
2023-04-18T20:29:22.384Z,98977.94
2023-04-18T20:31:49.135Z,98986.63
2023-04-18T20:34:16.247Z,98993.88
2023-04-18T20:36:43.040Z,98985.88
2023-04-18T20:39:09.818Z,99000.47
2023-04-18T20:41:37.125Z,98990.19
2023-04-18T20:44:09.230Z,98993.13
2023-04-18T20:46:36.340Z,98994.66
2023-04-18T20:49:03.518Z,98993.22
2023-04-18T20:51:31.826Z,98994.38
2023-04-18T20:53:58.792Z,98985.53
2023-04-18T20:56:25.800Z,98972.59
2023-04-18T20:58:52.617Z,98983.47
2023-04-18T21:01:19.633Z,98980.78
2023-04-18T21:03:46.957Z,98974.81
2023-04-18T21:06:14.243Z,98982.91
2023-04-18T21:08:41.300Z,98979.88
2023-04-18T21:11:08.268Z,98979.09
2023-04-18T21:13:35.093Z,98963.91
2023-04-18T21:16:03.613Z,98973.50
2023-04-18T21:18:30.538Z,98967.84
2023-04-18T21:20:57.546Z,98971.72
2023-04-18T21:23:24.725Z,98978.38
2023-04-18T21:25:51.617Z,98968.84
2023-04-18T21:28:21.679Z,98974.84
2023-04-18T21:30:48.772Z,98978.25
2023-04-18T21:33:15.669Z,98968.88
2023-04-18T21:35:42.774Z,98970.97
2023-04-18T21:38:09.595Z,98980.84
2023-04-18T21:40:37.652Z,98975.16
2023-04-18T21:43:04.589Z,98975.81
2023-04-18T21:45:31.543Z,98974.22
2023-04-18T21:47:58.629Z,98974.53
2023-04-18T21:50:25.722Z,98975.81
2023-04-18T21:52:52.545Z,98969.19
2023-04-18T21:55:19.437Z,98976.78
2023-04-18T21:57:46.250Z,98966.44
2023-04-18T22:00:13.831Z,98960.75
2023-04-18T22:02:40.854Z,98970.81
2023-04-18T22:05:09.009Z,98976.13
2023-04-18T22:07:40.787Z,98971.44
2023-04-18T22:10:18.556Z,98975.50
2023-04-18T22:12:45.893Z,98969.66
2023-04-18T22:15:12.765Z,98970.16
2023-04-18T22:17:41.828Z,98963.03
2023-04-18T22:20:11.311Z,98963.66
2023-04-18T22:22:38.111Z,98958.97
2023-04-18T22:25:07.522Z,98957.53
2023-04-18T22:27:34.386Z,98968.84
2023-04-18T22:30:01.429Z,98960.91
2023-04-18T22:32:28.237Z,98974.03
2023-04-18T22:34:55.479Z,98955.56
2023-04-18T22:37:22.258Z,98972.25
2023-04-18T22:39:49.173Z,98960.13
2023-04-18T22:42:16.110Z,98964.00
2023-04-18T22:44:43.091Z,98946.53
2023-04-18T22:47:10.185Z,98951.03
2023-04-18T22:49:37.297Z,98942.31
2023-04-18T22:52:05.159Z,98935.66
2023-04-18T22:54:31.948Z,98941.00
2023-04-18T22:56:58.883Z,98936.00
2023-04-18T22:59:26.112Z,98934.22
2023-04-18T23:01:53.274Z,98932.13
2023-04-18T23:04:20.406Z,98921.09
2023-04-18T23:06:47.876Z,98924.19
2023-04-18T23:09:16.627Z,98924.50
2023-04-18T23:11:43.564Z,98912.88
2023-04-18T23:14:10.506Z,98926.78
2023-04-18T23:16:37.764Z,98912.88
2023-04-18T23:19:04.665Z,98905.09
2023-04-18T23:21:32.409Z,98920.16
2023-04-18T23:23:59.848Z,98921.44
2023-04-18T23:26:26.771Z,98906.41
2023-04-18T23:28:53.731Z,98919.19
2023-04-18T23:31:20.929Z,98921.28
2023-04-18T23:33:47.748Z,98907.38
2023-04-18T23:36:14.914Z,98906.09
2023-04-18T23:38:41.804Z,98909.47
2023-04-18T23:41:08.868Z,98906.72
2023-04-18T23:43:35.773Z,98898.31
2023-04-18T23:46:02.958Z,98906.88
2023-04-18T23:48:29.821Z,98907.53
2023-04-18T23:50:56.728Z,98892.97
2023-04-18T23:53:23.839Z,98889.09
2023-04-18T23:55:51.276Z,98900.41
2023-04-18T23:58:18.058Z,98897.19
